sensor_id;sensor_type;location;lat;lon;timestamp;pressure;altitude;pressure_sealevel;temperature;humidity
52957;BME280;38819;42.692;23.342;2023-04-25T00:01:46;94560.75;;;13.25;78.19
52957;BME280;38819;42.692;23.342;2023-04-25T00:04:11;94547.50;;;13.32;78.21
52957;BME280;38819;42.692;23.342;2023-04-25T00:06:37;94549.44;;;13.32;78.41
52957;BME280;38819;42.692;23.342;2023-04-25T00:09:06;94541.75;;;13.34;79.23
52957;BME280;38819;42.692;23.342;2023-04-25T00:11:36;94532.66;;;13.39;79.27
52957;BME280;38819;42.692;23.342;2023-04-25T00:14:02;94517.47;;;13.38;79.36
52957;BME280;38819;42.692;23.342;2023-04-25T00:16:28;94509.66;;;13.36;79.22
52957;BME280;38819;42.692;23.342;2023-04-25T00:18:55;94505.38;;;13.35;79.42
52957;BME280;38819;42.692;23.342;2023-04-25T00:21:22;94499.47;;;13.33;79.53
52957;BME280;38819;42.692;23.342;2023-04-25T00:23:49;94492.47;;;13.32;79.30
52957;BME280;38819;42.692;23.342;2023-04-25T00:26:15;94505.38;;;13.35;79.01
52957;BME280;38819;42.692;23.342;2023-04-25T00:28:40;94496.75;;;13.33;78.29
52957;BME280;38819;42.692;23.342;2023-04-25T00:31:06;94499.78;;;13.31;78.29
52957;BME280;38819;42.692;23.342;2023-04-25T00:33:31;94493.59;;;13.22;78.84
52957;BME280;38819;42.692;23.342;2023-04-25T00:35:57;94490.28;;;13.16;78.94
52957;BME280;38819;42.692;23.342;2023-04-25T00:38:22;94502.19;;;13.24;78.70
52957;BME280;38819;42.692;23.342;2023-04-25T00:40:48;94499.81;;;13.23;79.20
52957;BME280;38819;42.692;23.342;2023-04-25T00:43:13;94493.94;;;13.21;78.67
52957;BME280;38819;42.692;23.342;2023-04-25T00:45:39;94485.47;;;13.22;79.20
52957;BME280;38819;42.692;23.342;2023-04-25T00:48:05;94494.06;;;13.24;78.21
52957;BME280;38819;42.692;23.342;2023-04-25T00:50:33;94498.25;;;13.13;77.84
52957;BME280;38819;42.692;23.342;2023-04-25T00:52:59;94492.50;;;13.23;77.71
52957;BME280;38819;42.692;23.342;2023-04-25T00:55:25;94499.94;;;13.26;76.87
52957;BME280;38819;42.692;23.342;2023-04-25T00:57:51;94497.25;;;13.26;76.96
52957;BME280;38819;42.692;23.342;2023-04-25T01:00:17;94487.66;;;12.99;77.59
52957;BME280;38819;42.692;23.342;2023-04-25T01:02:43;94505.88;;;12.90;78.42
52957;BME280;38819;42.692;23.342;2023-04-25T01:05:10;94506.38;;;12.83;78.34
52957;BME280;38819;42.692;23.342;2023-04-25T01:07:35;94502.53;;;12.84;78.16
52957;BME280;38819;42.692;23.342;2023-04-25T01:10:01;94478.59;;;12.86;77.67
52957;BME280;38819;42.692;23.342;2023-04-25T01:12:27;94479.09;;;12.79;79.58
52957;BME280;38819;42.692;23.342;2023-04-25T01:14:53;94477.81;;;12.86;79.32
52957;BME280;38819;42.692;23.342;2023-04-25T01:17:19;94470.63;;;12.51;80.13
52957;BME280;38819;42.692;23.342;2023-04-25T01:19:45;94466.19;;;12.29;80.88
52957;BME280;38819;42.692;23.342;2023-04-25T01:22:13;94455.66;;;12.36;80.20
52957;BME280;38819;42.692;23.342;2023-04-25T01:24:39;94457.56;;;12.36;80.98
52957;BME280;38819;42.692;23.342;2023-04-25T01:27:06;94450.28;;;12.10;81.75
52957;BME280;38819;42.692;23.342;2023-04-25T01:29:32;94463.19;;;12.13;82.22
52957;BME280;38819;42.692;23.342;2023-04-25T01:31:58;94454.13;;;12.00;82.51
52957;BME280;38819;42.692;23.342;2023-04-25T01:34:24;94461.44;;;12.09;82.34
52957;BME280;38819;42.692;23.342;2023-04-25T01:36:51;94458.09;;;12.12;82.21
52957;BME280;38819;42.692;23.342;2023-04-25T01:39:20;94455.53;;;12.15;81.87
52957;BME280;38819;42.692;23.342;2023-04-25T01:41:46;94467.47;;;12.23;81.53
52957;BME280;38819;42.692;23.342;2023-04-25T01:44:13;94466.34;;;12.24;81.42
52957;BME280;38819;42.692;23.342;2023-04-25T01:46:38;94470.34;;;12.27;81.18
52957;BME280;38819;42.692;23.342;2023-04-25T01:49:04;94462.69;;;12.29;81.04
52957;BME280;38819;42.692;23.342;2023-04-25T01:51:30;94468.91;;;12.38;81.02
52957;BME280;38819;42.692;23.342;2023-04-25T01:53:56;94468.53;;;12.39;80.58
52957;BME280;38819;42.692;23.342;2023-04-25T01:56:22;94478.88;;;12.46;80.27
52957;BME280;38819;42.692;23.342;2023-04-25T01:58:47;94473.47;;;12.46;80.18
52957;BME280;38819;42.692;23.342;2023-04-25T02:01:12;94467.13;;;12.42;80.55
52957;BME280;38819;42.692;23.342;2023-04-25T02:03:38;94465.84;;;12.48;79.89
52957;BME280;38819;42.692;23.342;2023-04-25T02:06:03;94466.91;;;12.56;80.18
52957;BME280;38819;42.692;23.342;2023-04-25T02:08:29;94469.13;;;12.63;79.74
52957;BME280;38819;42.692;23.342;2023-04-25T02:10:55;94464.66;;;12.67;79.42
52957;BME280;38819;42.692;23.342;2023-04-25T02:13:20;94457.00;;;12.69;79.45
52957;BME280;38819;42.692;23.342;2023-04-25T02:15:46;94453.78;;;12.75;79.32
52957;BME280;38819;42.692;23.342;2023-04-25T02:18:11;94456.50;;;12.75;79.36
52957;BME280;38819;42.692;23.342;2023-04-25T02:20:36;94447.09;;;12.73;78.65
52957;BME280;38819;42.692;23.342;2023-04-25T02:23:03;94442.63;;;12.77;78.65
52957;BME280;38819;42.692;23.342;2023-04-25T02:25:28;94431.34;;;12.75;78.71
52957;BME280;38819;42.692;23.342;2023-04-25T02:27:54;94423.56;;;12.65;79.03
52957;BME280;38819;42.692;23.342;2023-04-25T02:30:19;94425.13;;;12.66;79.21
52957;BME280;38819;42.692;23.342;2023-04-25T02:32:45;94431.34;;;12.66;79.35
52957;BME280;38819;42.692;23.342;2023-04-25T02:35:10;94419.56;;;12.62;78.85
52957;BME280;38819;42.692;23.342;2023-04-25T02:37:37;94424.22;;;12.53;79.83
52957;BME280;38819;42.692;23.342;2023-04-25T02:40:03;94412.97;;;12.42;80.18
52957;BME280;38819;42.692;23.342;2023-04-25T02:42:30;94417.94;;;12.31;80.80
52957;BME280;38819;42.692;23.342;2023-04-25T02:44:55;94418.41;;;12.33;80.12
52957;BME280;38819;42.692;23.342;2023-04-25T02:47:21;94417.28;;;12.34;80.12
52957;BME280;38819;42.692;23.342;2023-04-25T02:49:47;94415.88;;;12.28;80.32
52957;BME280;38819;42.692;23.342;2023-04-25T02:52:12;94414.91;;;12.24;80.37
52957;BME280;38819;42.692;23.342;2023-04-25T02:54:38;94413.47;;;12.27;80.16
52957;BME280;38819;42.692;23.342;2023-04-25T02:57:04;94413.34;;;12.23;80.23
52957;BME280;38819;42.692;23.342;2023-04-25T02:59:29;94409.69;;;12.10;80.46
52957;BME280;38819;42.692;23.342;2023-04-25T03:01:55;94405.53;;;12.21;79.94
52957;BME280;38819;42.692;23.342;2023-04-25T03:04:20;94405.03;;;12.19;79.73
52957;BME280;38819;42.692;23.342;2023-04-25T03:06:52;94414.63;;;12.17;79.79
52957;BME280;38819;42.692;23.342;2023-04-25T03:09:18;94411.28;;;12.11;80.30
52957;BME280;38819;42.692;23.342;2023-04-25T03:11:44;94405.72;;;11.99;80.45
52957;BME280;38819;42.692;23.342;2023-04-25T03:14:10;94407.50;;;11.95;80.53
52957;BME280;38819;42.692;23.342;2023-04-25T03:16:35;94402.72;;;11.92;80.71
52957;BME280;38819;42.692;23.342;2023-04-25T03:19:02;94413.53;;;12.00;79.87
52957;BME280;38819;42.692;23.342;2023-04-25T03:21:27;94410.81;;;12.00;79.84
52957;BME280;38819;42.692;23.342;2023-04-25T03:23:52;94406.22;;;11.92;80.29
52957;BME280;38819;42.692;23.342;2023-04-25T03:26:18;94413.22;;;12.02;80.13
52957;BME280;38819;42.692;23.342;2023-04-25T03:28:43;94404.91;;;12.07;79.79
52957;BME280;38819;42.692;23.342;2023-04-25T03:31:09;94406.03;;;11.97;80.48
52957;BME280;38819;42.692;23.342;2023-04-25T03:33:34;94400.81;;;11.92;80.46
52957;BME280;38819;42.692;23.342;2023-04-25T03:36:00;94407.00;;;12.01;79.85
52957;BME280;38819;42.692;23.342;2023-04-25T03:38:25;94405.41;;;12.00;79.85
52957;BME280;38819;42.692;23.342;2023-04-25T03:40:51;94413.81;;;12.08;79.93
52957;BME280;38819;42.692;23.342;2023-04-25T03:43:17;94402.38;;;12.02;80.92
52957;BME280;38819;42.692;23.342;2023-04-25T03:45:42;94393.34;;;11.98;81.27
52957;BME280;38819;42.692;23.342;2023-04-25T03:48:08;94402.69;;;12.00;81.00
52957;BME280;38819;42.692;23.342;2023-04-25T03:50:34;94414.63;;;12.17;80.64
52957;BME280;38819;42.692;23.342;2023-04-25T03:52:59;94400.13;;;12.21;80.71
52957;BME280;38819;42.692;23.342;2023-04-25T03:55:25;94392.31;;;12.20;80.65
52957;BME280;38819;42.692;23.342;2023-04-25T03:57:50;94387.06;;;12.23;80.52
52957;BME280;38819;42.692;23.342;2023-04-25T04:00:16;94398.03;;;12.27;79.69
52957;BME280;38819;42.692;23.342;2023-04-25T04:02:41;94405.03;;;12.28;79.82
52957;BME280;38819;42.692;23.342;2023-04-25T04:05:07;94413.59;;;12.39;80.37
52957;BME280;38819;42.692;23.342;2023-04-25T04:07:32;94413.38;;;12.53;80.28
52957;BME280;38819;42.692;23.342;2023-04-25T04:09:59;94415.75;;;12.63;78.99
52957;BME280;38819;42.692;23.342;2023-04-25T04:12:24;94422.47;;;12.57;78.79
52957;BME280;38819;42.692;23.342;2023-04-25T04:14:50;94407.19;;;12.52;78.83
52957;BME280;38819;42.692;23.342;2023-04-25T04:17:15;94414.88;;;12.41;78.87
52957;BME280;38819;42.692;23.342;2023-04-25T04:19:41;94422.69;;;12.43;78.36
52957;BME280;38819;42.692;23.342;2023-04-25T04:22:06;94417.88;;;12.49;78.89
52957;BME280;38819;42.692;23.342;2023-04-25T04:24:32;94404.00;;;12.50;78.61
52957;BME280;38819;42.692;23.342;2023-04-25T04:26:58;94420.84;;;12.65;78.78
52957;BME280;38819;42.692;23.342;2023-04-25T04:29:24;94419.50;;;12.79;79.01
52957;BME280;38819;42.692;23.342;2023-04-25T04:31:50;94419.66;;;12.83;79.01
52957;BME280;38819;42.692;23.342;2023-04-25T04:34:17;94404.47;;;12.91;78.74
52957;BME280;38819;42.692;23.342;2023-04-25T04:36:44;94404.75;;;12.98;78.67
52957;BME280;38819;42.692;23.342;2023-04-25T04:39:11;94398.06;;;12.95;78.46
52957;BME280;38819;42.692;23.342;2023-04-25T04:41:37;94409.69;;;12.96;78.45
52957;BME280;38819;42.692;23.342;2023-04-25T04:44:03;94408.44;;;12.93;77.92
52957;BME280;38819;42.692;23.342;2023-04-25T04:46:28;94405.28;;;12.91;78.24
52957;BME280;38819;42.692;23.342;2023-04-25T04:48:53;94408.59;;;12.97;78.29
52957;BME280;38819;42.692;23.342;2023-04-25T04:51:19;94420.34;;;13.01;78.00
52957;BME280;38819;42.692;23.342;2023-04-25T04:53:46;94431.16;;;13.10;77.52
52957;BME280;38819;42.692;23.342;2023-04-25T04:56:11;94420.03;;;12.64;78.57
52957;BME280;38819;42.692;23.342;2023-04-25T04:58:37;94420.41;;;12.54;79.58
52957;BME280;38819;42.692;23.342;2023-04-25T05:01:02;94429.31;;;12.63;79.11
52957;BME280;38819;42.692;23.342;2023-04-25T05:03:28;94434.72;;;12.63;79.91
52957;BME280;38819;42.692;23.342;2023-04-25T05:05:53;94425.19;;;12.57;79.88
52957;BME280;38819;42.692;23.342;2023-04-25T05:08:19;94433.50;;;12.43;80.87
52957;BME280;38819;42.692;23.342;2023-04-25T05:10:44;94443.03;;;12.58;80.75
52957;BME280;38819;42.692;23.342;2023-04-25T05:13:09;94445.25;;;12.56;80.39
52957;BME280;38819;42.692;23.342;2023-04-25T05:15:35;94437.69;;;12.14;81.33
52957;BME280;38819;42.692;23.342;2023-04-25T05:18:00;94457.59;;;12.27;81.37
52957;BME280;38819;42.692;23.342;2023-04-25T05:20:26;94449.75;;;12.34;80.73
52957;BME280;38819;42.692;23.342;2023-04-25T05:22:52;94440.69;;;12.39;80.19
52957;BME280;38819;42.692;23.342;2023-04-25T05:25:17;94435.56;;;12.46;80.43
52957;BME280;38819;42.692;23.342;2023-04-25T05:27:43;94439.38;;;12.54;79.64
52957;BME280;38819;42.692;23.342;2023-04-25T05:30:08;94448.28;;;12.54;79.72
52957;BME280;38819;42.692;23.342;2023-04-25T05:32:34;94440.31;;;12.58;78.96
52957;BME280;38819;42.692;23.342;2023-04-25T05:35:01;94433.34;;;12.39;78.73
52957;BME280;38819;42.692;23.342;2023-04-25T05:37:26;94440.66;;;12.48;79.35
52957;BME280;38819;42.692;23.342;2023-04-25T05:39:51;94443.53;;;12.42;79.30
52957;BME280;38819;42.692;23.342;2023-04-25T05:42:17;94439.88;;;12.47;80.04
52957;BME280;38819;42.692;23.342;2023-04-25T05:44:42;94434.91;;;12.49;80.16
52957;BME280;38819;42.692;23.342;2023-04-25T05:47:08;94432.19;;;12.58;79.85
52957;BME280;38819;42.692;23.342;2023-04-25T05:49:34;94432.28;;;12.70;79.74
52957;BME280;38819;42.692;23.342;2023-04-25T05:52:00;94436.38;;;12.85;79.47
52957;BME280;38819;42.692;23.342;2023-04-25T05:54:25;94447.50;;;12.92;79.31
52957;BME280;38819;42.692;23.342;2023-04-25T05:56:51;94447.94;;;13.03;79.04
52957;BME280;38819;42.692;23.342;2023-04-25T05:59:16;94445.00;;;13.17;77.44
52957;BME280;38819;42.692;23.342;2023-04-25T06:01:41;94440.28;;;13.26;76.85
52957;BME280;38819;42.692;23.342;2023-04-25T06:04:07;94433.44;;;13.29;76.96
52957;BME280;38819;42.692;23.342;2023-04-25T06:06:32;94434.22;;;13.38;76.50
52957;BME280;38819;42.692;23.342;2023-04-25T06:08:58;94439.38;;;13.52;75.69
52957;BME280;38819;42.692;23.342;2023-04-25T06:11:23;94438.41;;;13.57;75.32
52957;BME280;38819;42.692;23.342;2023-04-25T06:13:49;94446.81;;;13.64;75.24
52957;BME280;38819;42.692;23.342;2023-04-25T06:16:14;94447.25;;;13.66;75.20
52957;BME280;38819;42.692;23.342;2023-04-25T06:18:41;94439.38;;;13.73;74.19
52957;BME280;38819;42.692;23.342;2023-04-25T06:21:06;94439.00;;;13.83;74.37
52957;BME280;38819;42.692;23.342;2023-04-25T06:23:32;94442.50;;;13.84;73.79
52957;BME280;38819;42.692;23.342;2023-04-25T06:25:57;94443.41;;;13.88;73.75
52957;BME280;38819;42.692;23.342;2023-04-25T06:28:23;94452.94;;;13.94;74.35
52957;BME280;38819;42.692;23.342;2023-04-25T06:30:49;94451.88;;;13.86;74.69
52957;BME280;38819;42.692;23.342;2023-04-25T06:33:15;94448.06;;;13.87;74.99
52957;BME280;38819;42.692;23.342;2023-04-25T06:35:40;94448.78;;;13.97;74.86
52957;BME280;38819;42.692;23.342;2023-04-25T06:38:06;94446.19;;;14.00;74.41
52957;BME280;38819;42.692;23.342;2023-04-25T06:40:31;94446.31;;;14.04;73.51
52957;BME280;38819;42.692;23.342;2023-04-25T06:42:57;94448.75;;;14.18;73.62
52957;BME280;38819;42.692;23.342;2023-04-25T06:45:22;94448.06;;;14.21;73.85
52957;BME280;38819;42.692;23.342;2023-04-25T06:47:47;94457.06;;;14.34;73.15
52957;BME280;38819;42.692;23.342;2023-04-25T06:50:13;94457.63;;;14.27;71.20
52957;BME280;38819;42.692;23.342;2023-04-25T06:52:38;94457.41;;;14.32;71.40
52957;BME280;38819;42.692;23.342;2023-04-25T06:55:04;94457.63;;;14.39;71.27
52957;BME280;38819;42.692;23.342;2023-04-25T06:57:30;94454.03;;;14.48;71.33
52957;BME280;38819;42.692;23.342;2023-04-25T06:59:56;94449.72;;;14.46;72.07
52957;BME280;38819;42.692;23.342;2023-04-25T07:02:21;94452.72;;;14.20;71.40
52957;BME280;38819;42.692;23.342;2023-04-25T07:04:47;94446.84;;;14.18;70.95
52957;BME280;38819;42.692;23.342;2023-04-25T07:07:13;94458.03;;;14.17;71.04
52957;BME280;38819;42.692;23.342;2023-04-25T07:09:38;94460.97;;;13.90;71.79
52957;BME280;38819;42.692;23.342;2023-04-25T07:12:04;94452.28;;;13.97;72.75
52957;BME280;38819;42.692;23.342;2023-04-25T07:14:29;94452.50;;;13.92;72.58
52957;BME280;38819;42.692;23.342;2023-04-25T07:16:55;94452.38;;;13.88;72.67
52957;BME280;38819;42.692;23.342;2023-04-25T07:19:23;94457.25;;;13.95;72.28
52957;BME280;38819;42.692;23.342;2023-04-25T07:21:56;94449.94;;;14.08;71.57
52957;BME280;38819;42.692;23.342;2023-04-25T07:24:21;94454.50;;;14.16;71.55
52957;BME280;38819;42.692;23.342;2023-04-25T07:26:46;94450.78;;;14.21;71.46
52957;BME280;38819;42.692;23.342;2023-04-25T07:29:12;94454.69;;;14.32;71.21
52957;BME280;38819;42.692;23.342;2023-04-25T07:31:37;94446.78;;;14.39;71.67
52957;BME280;38819;42.692;23.342;2023-04-25T07:34:03;94451.44;;;14.51;72.02
52957;BME280;38819;42.692;23.342;2023-04-25T07:36:28;94449.66;;;14.55;71.24
52957;BME280;38819;42.692;23.342;2023-04-25T07:38:55;94442.66;;;14.67;71.07
52957;BME280;38819;42.692;23.342;2023-04-25T07:41:21;94445.75;;;14.77;70.22
52957;BME280;38819;42.692;23.342;2023-04-25T07:43:46;94436.16;;;14.92;70.41
52957;BME280;38819;42.692;23.342;2023-04-25T07:46:12;94433.31;;;15.01;70.01
52957;BME280;38819;42.692;23.342;2023-04-25T07:48:37;94425.25;;;15.05;69.99
52957;BME280;38819;42.692;23.342;2023-04-25T07:51:03;94434.00;;;15.23;69.74
52957;BME280;38819;42.692;23.342;2023-04-25T07:53:30;94427.88;;;15.01;67.62
52957;BME280;38819;42.692;23.342;2023-04-25T07:55:57;94427.75;;;14.97;67.77
52957;BME280;38819;42.692;23.342;2023-04-25T07:58:22;94426.63;;;15.11;68.01
52957;BME280;38819;42.692;23.342;2023-04-25T08:00:48;94427.88;;;15.26;68.28
52957;BME280;38819;42.692;23.342;2023-04-25T08:03:13;94426.28;;;15.37;68.25
52957;BME280;38819;42.692;23.342;2023-04-25T08:05:39;94424.78;;;15.52;68.00
52957;BME280;38819;42.692;23.342;2023-04-25T08:08:04;94426.94;;;15.46;66.81
52957;BME280;38819;42.692;23.342;2023-04-25T08:10:32;94418.63;;;15.55;66.75
52957;BME280;38819;42.692;23.342;2023-04-25T08:12:58;94432.22;;;15.67;66.49
52957;BME280;38819;42.692;23.342;2023-04-25T08:15:23;94431.53;;;15.83;65.95
52957;BME280;38819;42.692;23.342;2023-04-25T08:17:48;94426.63;;;15.88;65.60
52957;BME280;38819;42.692;23.342;2023-04-25T08:20:14;94420.53;;;15.79;64.22
52957;BME280;38819;42.692;23.342;2023-04-25T08:22:39;94411.19;;;15.92;63.43
52957;BME280;38819;42.692;23.342;2023-04-25T08:25:05;94400.59;;;16.03;62.90
52957;BME280;38819;42.692;23.342;2023-04-25T08:27:31;94401.00;;;16.18;63.14
52957;BME280;38819;42.692;23.342;2023-04-25T08:29:56;94404.69;;;16.25;63.05
52957;BME280;38819;42.692;23.342;2023-04-25T08:32:23;94398.09;;;16.26;63.58
52957;BME280;38819;42.692;23.342;2023-04-25T08:34:48;94391.53;;;15.99;61.83
52957;BME280;38819;42.692;23.342;2023-04-25T08:37:13;94405.16;;;15.99;61.11
52957;BME280;38819;42.692;23.342;2023-04-25T08:39:39;94415.22;;;16.11;61.06
52957;BME280;38819;42.692;23.342;2023-04-25T08:42:06;94418.09;;;16.02;61.39
52957;BME280;38819;42.692;23.342;2023-04-25T08:44:35;94428.63;;;15.76;62.56
52957;BME280;38819;42.692;23.342;2023-04-25T08:47:04;94432.28;;;14.81;70.94
52957;BME280;38819;42.692;23.342;2023-04-25T08:49:33;94449.38;;;14.48;73.01
52957;BME280;38819;42.692;23.342;2023-04-25T08:52:04;94439.22;;;14.45;69.78
52957;BME280;38819;42.692;23.342;2023-04-25T08:54:32;94433.91;;;14.49;72.44
52957;BME280;38819;42.692;23.342;2023-04-25T08:56:59;94425.03;;;14.27;75.04
52957;BME280;38819;42.692;23.342;2023-04-25T08:59:27;94423.09;;;14.27;75.48
52957;BME280;38819;42.692;23.342;2023-04-25T09:01:52;94423.59;;;14.08;73.84
52957;BME280;38819;42.692;23.342;2023-04-25T09:04:18;94417.28;;;14.17;73.66
52957;BME280;38819;42.692;23.342;2023-04-25T09:06:45;94401.78;;;14.17;74.71
52957;BME280;38819;42.692;23.342;2023-04-25T09:09:10;94405.75;;;14.20;73.06
52957;BME280;38819;42.692;23.342;2023-04-25T09:11:37;94404.19;;;14.31;74.74
52957;BME280;38819;42.692;23.342;2023-04-25T09:14:16;94399.47;;;14.40;74.55
52957;BME280;38819;42.692;23.342;2023-04-25T09:19:24;94390.72;;;14.35;69.13
52957;BME280;38819;42.692;23.342;2023-04-25T09:21:50;94383.53;;;14.51;68.87
52957;BME280;38819;42.692;23.342;2023-04-25T09:24:29;94378.59;;;14.66;65.90
52957;BME280;38819;42.692;23.342;2023-04-25T09:26:55;94384.47;;;14.80;66.80
52957;BME280;38819;42.692;23.342;2023-04-25T09:29:29;94388.44;;;14.95;67.27
52957;BME280;38819;42.692;23.342;2023-04-25T09:32:11;94384.38;;;15.01;65.04
52957;BME280;38819;42.692;23.342;2023-04-25T09:34:40;94384.13;;;15.06;65.05
52957;BME280;38819;42.692;23.342;2023-04-25T09:37:10;94380.06;;;15.12;65.25
52957;BME280;38819;42.692;23.342;2023-04-25T09:39:39;94379.59;;;15.23;65.14
52957;BME280;38819;42.692;23.342;2023-04-25T09:42:05;94374.25;;;15.38;66.39
52957;BME280;38819;42.692;23.342;2023-04-25T09:44:31;94362.50;;;15.63;67.03
52957;BME280;38819;42.692;23.342;2023-04-25T09:46:57;94359.88;;;15.79;67.43
52957;BME280;38819;42.692;23.342;2023-04-25T09:49:22;94369.06;;;16.02;66.55
52957;BME280;38819;42.692;23.342;2023-04-25T09:51:57;94374.19;;;16.20;64.03
52957;BME280;38819;42.692;23.342;2023-04-25T09:54:26;94377.69;;;16.20;62.41
52957;BME280;38819;42.692;23.342;2023-04-25T09:56:52;94375.13;;;16.11;63.81
52957;BME280;38819;42.692;23.342;2023-04-25T09:59:22;94361.59;;;15.99;63.55
52957;BME280;38819;42.692;23.342;2023-04-25T10:01:51;94377.00;;;15.79;63.41
52957;BME280;38819;42.692;23.342;2023-04-25T10:04:24;94363.94;;;15.72;63.98
52957;BME280;38819;42.692;23.342;2023-04-25T10:06:52;94382.22;;;15.72;64.36
52957;BME280;38819;42.692;23.342;2023-04-25T10:09:21;94379.81;;;15.70;65.07
52957;BME280;38819;42.692;23.342;2023-04-25T10:11:50;94377.69;;;15.64;64.59
52957;BME280;38819;42.692;23.342;2023-04-25T10:14:16;94366.00;;;15.76;65.29
52957;BME280;38819;42.692;23.342;2023-04-25T10:16:42;94372.66;;;15.78;65.74
52957;BME280;38819;42.692;23.342;2023-04-25T10:19:09;94380.41;;;15.76;65.25
52957;BME280;38819;42.692;23.342;2023-04-25T10:21:39;94385.69;;;15.85;65.65
52957;BME280;38819;42.692;23.342;2023-04-25T10:24:05;94380.91;;;15.94;68.89
52957;BME280;38819;42.692;23.342;2023-04-25T10:26:31;94363.59;;;15.74;70.76
52957;BME280;38819;42.692;23.342;2023-04-25T10:29:02;94366.00;;;15.76;66.93
52957;BME280;38819;42.692;23.342;2023-04-25T10:31:30;94362.44;;;15.87;66.92
52957;BME280;38819;42.692;23.342;2023-04-25T10:33:56;94368.84;;;15.95;65.31
52957;BME280;38819;42.692;23.342;2023-04-25T10:36:23;94371.28;;;16.13;64.33
52957;BME280;38819;42.692;23.342;2023-04-25T10:38:49;94379.97;;;16.02;60.84
52957;BME280;38819;42.692;23.342;2023-04-25T10:41:17;94390.09;;;15.36;60.62
52957;BME280;38819;42.692;23.342;2023-04-25T10:43:45;94389.47;;;14.90;61.00
52957;BME280;38819;42.692;23.342;2023-04-25T10:46:26;94378.34;;;14.83;61.69
52957;BME280;38819;42.692;23.342;2023-04-25T10:48:56;94384.03;;;14.78;61.90
52957;BME280;38819;42.692;23.342;2023-04-25T10:51:24;94376.78;;;14.82;62.32
52957;BME280;38819;42.692;23.342;2023-04-25T10:54:07;94367.50;;;14.95;61.68
52957;BME280;38819;42.692;23.342;2023-04-25T11:01:40;94372.91;;;15.08;63.04
52957;BME280;38819;42.692;23.342;2023-04-25T11:09:27;94358.22;;;15.49;62.38
52957;BME280;38819;42.692;23.342;2023-04-25T11:11:58;94349.38;;;15.52;61.76
52957;BME280;38819;42.692;23.342;2023-04-25T11:14:25;94359.66;;;15.59;53.60
52957;BME280;38819;42.692;23.342;2023-04-25T11:16:55;94337.75;;;15.68;60.39
52957;BME280;38819;42.692;23.342;2023-04-25T11:19:21;94343.44;;;15.63;62.55
52957;BME280;38819;42.692;23.342;2023-04-25T11:21:47;94339.16;;;15.49;60.45
52957;BME280;38819;42.692;23.342;2023-04-25T11:24:12;94342.34;;;15.51;61.05
52957;BME280;38819;42.692;23.342;2023-04-25T11:26:37;94348.81;;;15.47;56.86
52957;BME280;38819;42.692;23.342;2023-04-25T11:29:03;94348.84;;;15.34;57.60
52957;BME280;38819;42.692;23.342;2023-04-25T11:31:29;94342.53;;;15.30;58.01
52957;BME280;38819;42.692;23.342;2023-04-25T11:33:58;94341.22;;;15.40;58.06
52957;BME280;38819;42.692;23.342;2023-04-25T11:36:25;94342.22;;;15.48;57.61
52957;BME280;38819;42.692;23.342;2023-04-25T11:38:52;94355.25;;;15.54;56.97
52957;BME280;38819;42.692;23.342;2023-04-25T11:41:18;94357.16;;;15.66;55.63
52957;BME280;38819;42.692;23.342;2023-04-25T11:43:44;94378.78;;;15.75;55.41
52957;BME280;38819;42.692;23.342;2023-04-25T11:46:10;94358.03;;;15.83;55.43
52957;BME280;38819;42.692;23.342;2023-04-25T11:48:40;94367.97;;;15.91;55.42
52957;BME280;38819;42.692;23.342;2023-04-25T11:51:06;94363.06;;;15.97;54.33
52957;BME280;38819;42.692;23.342;2023-04-25T11:53:31;94354.97;;;16.00;55.83
52957;BME280;38819;42.692;23.342;2023-04-25T11:55:56;94339.84;;;15.87;56.89
52957;BME280;38819;42.692;23.342;2023-04-25T11:58:22;94348.56;;;15.92;57.35
52957;BME280;38819;42.692;23.342;2023-04-25T12:00:48;94352.25;;;16.00;58.03
52957;BME280;38819;42.692;23.342;2023-04-25T12:03:13;94353.25;;;16.08;59.85
52957;BME280;38819;42.692;23.342;2023-04-25T12:05:38;94335.53;;;16.14;58.07
52957;BME280;38819;42.692;23.342;2023-04-25T12:08:12;94336.03;;;16.20;59.14
52957;BME280;38819;42.692;23.342;2023-04-25T12:10:39;94330.69;;;16.23;61.02
52957;BME280;38819;42.692;23.342;2023-04-25T12:13:20;94329.38;;;16.33;59.39
52957;BME280;38819;42.692;23.342;2023-04-25T12:15:45;94334.91;;;16.37;55.56
52957;BME280;38819;42.692;23.342;2023-04-25T12:18:11;94331.50;;;16.40;55.81
52957;BME280;38819;42.692;23.342;2023-04-25T12:20:36;94332.03;;;16.29;54.86
52957;BME280;38819;42.692;23.342;2023-04-25T12:23:05;94327.72;;;16.44;55.54
52957;BME280;38819;42.692;23.342;2023-04-25T12:25:40;94329.66;;;16.60;55.11
52957;BME280;38819;42.692;23.342;2023-04-25T12:28:24;94330.63;;;16.67;56.79
52957;BME280;38819;42.692;23.342;2023-04-25T12:30:56;94338.63;;;16.76;56.21
52957;BME280;38819;42.692;23.342;2023-04-25T12:33:23;94360.84;;;16.78;54.81
52957;BME280;38819;42.692;23.342;2023-04-25T12:35:49;94379.25;;;16.49;56.37
52957;BME280;38819;42.692;23.342;2023-04-25T12:38:30;94403.16;;;16.12;62.64
52957;BME280;38819;42.692;23.342;2023-04-25T12:40:59;94410.94;;;15.45;68.58
52957;BME280;38819;42.692;23.342;2023-04-25T12:43:25;94412.13;;;15.07;68.07
52957;BME280;38819;42.692;23.342;2023-04-25T12:45:52;94408.03;;;14.88;70.66
52957;BME280;38819;42.692;23.342;2023-04-25T12:48:19;94409.34;;;14.45;68.87
52957;BME280;38819;42.692;23.342;2023-04-25T12:50:45;94417.75;;;14.19;70.35
52957;BME280;38819;42.692;23.342;2023-04-25T12:53:14;94420.00;;;14.17;71.97
52957;BME280;38819;42.692;23.342;2023-04-25T12:55:39;94407.91;;;14.26;71.72
52957;BME280;38819;42.692;23.342;2023-04-25T12:58:05;94415.06;;;14.31;72.29
52957;BME280;38819;42.692;23.342;2023-04-25T13:00:30;94406.25;;;14.34;70.59